Gossops Green, United Kingdom
Current Conditions -  °F | °C
As of 6:50 PM on Friday 21 Nov 2014 (Local Time) from EGKK Reporting Station
Haze Haze  
Wind Chill: 43°   Ceiling: 800
Heat Index: 46°   Visibility: 1.8mi
Dew Point: 45°   Wind: 7mph
Humidity: 93%   Direction: 70°ENE
Pressure: 29.94"   Gusts: NA
Location:  51.11°N, 0.22°W
Report Text: EGKK 211850Z 07006KT 3000 HZ BKN008 08/07 Q1014
Loading
Personal Weather Stations






























Interactive Weather Map New forecast layout! Learn more

10-Day Weather Forecast

Advertisements
Track Severe Weather on mobile